Time;durP1;ratioP1;P1;durP2;ratioP2;P2;SDS_P1;SDS_P2;PMS_P1;PMS_P2;Temp;Humidity;BMP_temperature;BMP_pressure;BME280_temperature;BME280_humidity;BME280_pressure;Samples;Min_cycle;Max_cycle;Signal;HPM_P1;HPM_P2
2022/06/21 00:01:03;;;;;;;11.20;7.65;;;;;;;-142.64;100.00;58178.75;5073778;28;20108;-57
2022/06/21 00:03:29;;;;;;;11.52;6.90;;;;;;;-142.64;100.00;58178.75;5072667;28;20540;-59
2022/06/21 00:05:55;;;;;;;14.20;8.05;;;;;;;-142.64;100.00;58178.75;5073706;28;20495;-56
2022/06/21 00:08:23;;;;;;;11.73;6.85;;;;;;;-142.64;100.00;58178.75;5072507;28;20032;-56
2022/06/21 00:10:51;;;;;;;10.82;7.47;;;;;;;-142.64;100.00;58178.75;5071555;28;20059;-57
2022/06/21 00:13:20;;;;;;;13.77;8.70;;;;;;;-142.64;100.00;58178.75;5072610;28;20107;-58
2022/06/21 00:15:48;;;;;;;10.80;8.38;;;;;;;-142.64;100.00;58178.75;5073480;28;20049;-55
2022/06/21 00:18:17;;;;;;;15.18;7.72;;;;;;;-142.64;100.00;58178.75;5072321;28;20395;-58
2022/06/21 00:20:42;;;;;;;12.35;7.82;;;;;;;-142.64;100.00;58178.75;5055739;28;20372;-57
2022/06/21 00:23:33;;;;;;;13.27;8.23;;;;;;;-142.64;100.00;58178.75;5055610;28;20031;-58
2022/06/21 00:25:59;;;;;;;12.43;7.13;;;;;;;-142.64;100.00;58178.75;5073577;28;20090;-58
2022/06/21 00:28:25;;;;;;;11.55;7.80;;;;;;;-142.64;100.00;58178.75;5073482;28;20475;-59
2022/06/21 00:30:52;;;;;;;15.27;8.18;;;;;;;-142.64;100.00;58178.75;5072149;28;20071;-55
2022/06/21 00:33:22;;;;;;;14.05;8.30;;;;;;;-142.64;100.00;58178.75;5072109;28;20449;-58
2022/06/21 00:35:50;;;;;;;14.90;9.20;;;;;;;-142.64;100.00;58178.75;5073415;28;20434;-58
2022/06/21 00:38:26;;;;;;;11.95;8.38;;;;;;;-142.64;100.00;58178.75;5071929;28;20111;-57
2022/06/21 00:40:51;;;;;;;11.07;8.00;;;;;;;-142.64;100.00;58178.75;5071894;28;20369;-55
2022/06/21 00:43:20;;;;;;;11.80;8.18;;;;;;;-142.64;100.00;58178.75;5073021;28;20035;-61
2022/06/21 00:45:47;;;;;;;10.65;7.55;;;;;;;-142.64;100.00;58178.75;5073041;28;20062;-58
2022/06/21 00:48:18;;;;;;;11.57;7.18;;;;;;;-142.64;100.00;58178.75;5072908;28;20472;-59
2022/06/21 00:50:44;;;;;;;;;;;;;;;-142.64;100.00;58178.75;5073479;28;20032;-58
2022/06/21 00:53:25;;;;;;;15.35;7.95;;;;;;;-142.64;100.00;58178.75;5055187;28;19919;-58
2022/06/21 00:55:55;;;;;;;18.20;8.77;;;;;;;-142.64;100.00;58178.75;5072853;28;20055;-57
2022/06/21 00:58:25;;;;;;;14.07;9.13;;;;;;;-142.64;100.00;58178.75;5071647;28;20131;-56
2022/06/21 01:01:03;;;;;;;16.13;9.07;;;;;;;-142.64;100.00;58178.75;5072879;28;20040;-55
2022/06/21 01:03:36;;;;;;;14.88;8.13;;;;;;;-142.64;100.00;58178.75;5071617;28;20063;-56
2022/06/21 01:06:05;;;;;;;14.27;8.73;;;;;;;-142.64;100.00;58178.75;5072704;28;20028;-60
2022/06/21 01:08:34;;;;;;;9.93;7.05;;;;;;;-142.64;100.00;58178.75;5072457;28;20017;-59
2022/06/21 01:11:05;;;;;;;12.25;7.45;;;;;;;-142.64;100.00;58178.75;5071522;28;20418;-57
2022/06/21 01:13:30;;;;;;;;;;;;;;;-142.64;100.00;58178.75;5055769;28;20032;-59
2022/06/21 01:15:56;;;;;;;10.75;7.18;;;;;;;-142.64;100.00;58178.75;5071329;28;20060;-60
2022/06/21 01:18:23;;;;;;;15.75;7.60;;;;;;;-142.64;100.00;58178.75;5072464;28;20111;-57
2022/06/21 01:20:51;;;;;;;13.75;7.13;;;;;;;-142.64;100.00;58178.75;5071015;28;20079;-56
2022/06/21 01:23:37;;;;;;;11.75;8.35;;;;;;;-142.64;100.00;58178.75;5071629;28;20035;-56
2022/06/21 01:26:24;;;;;;;11.85;7.43;;;;;;;-142.64;100.00;58178.75;5071319;28;20124;-58
2022/06/21 01:28:50;;;;;;;13.00;7.38;;;;;;;-142.64;100.00;58178.75;5072195;28;20115;-59
2022/06/21 01:31:16;;;;;;;15.02;8.15;;;;;;;-142.64;100.00;58178.75;5071054;28;20527;-54
2022/06/21 01:33:42;;;;;;;11.35;7.63;;;;;;;-142.64;100.00;58178.75;5071316;28;20119;-56
2022/06/21 01:36:18;;;;;;;16.83;8.13;;;;;;;-142.64;100.00;58178.75;5072238;28;20480;-56
2022/06/21 01:38:48;;;;;;;11.05;7.72;;;;;;;-142.64;100.00;58178.75;5071185;28;20034;-57
2022/06/21 01:41:18;;;;;;;16.05;8.73;;;;;;;-142.64;100.00;58178.75;5072288;28;20472;-58
2022/06/21 01:43:47;;;;;;;12.65;8.63;;;;;;;-142.64;100.00;58178.75;5072115;28;20529;-57
2022/06/21 01:46:15;;;;;;;10.85;8.38;;;;;;;-142.64;100.00;58178.75;5072499;28;20119;-56
2022/06/21 01:48:44;;;;;;;16.73;8.27;;;;;;;-142.64;100.00;58178.75;5072203;28;20472;-56
2022/06/21 01:51:14;;;;;;;13.38;8.43;;;;;;;-142.64;100.00;58178.75;5071185;28;20028;-58
2022/06/21 01:53:40;;;;;;;15.73;8.55;;;;;;;-142.64;100.00;58178.75;5072206;28;20051;-57
2022/06/21 01:56:09;;;;;;;11.85;7.45;;;;;;;-142.64;100.00;58178.75;5072062;28;20646;-59
2022/06/21 01:58:36;;;;;;;11.65;7.30;;;;;;;-142.64;100.00;58178.75;5071835;28;20024;-57
2022/06/21 02:01:10;;;;;;;13.77;7.68;;;;;;;-142.64;100.00;58178.75;5070746;28;20491;-57
2022/06/21 02:03:37;;;;;;;11.32;7.60;;;;;;;-142.64;100.00;58178.75;5071097;28;20407;-57
2022/06/21 02:06:09;;;;;;;13.23;8.25;;;;;;;-142.64;100.00;58178.75;5072106;28;20040;-58
2022/06/21 02:08:39;;;;;;;11.95;8.02;;;;;;;-142.64;100.00;58178.75;5071070;28;20028;-59
2022/06/21 02:11:09;;;;;;;14.88;8.00;;;;;;;-142.64;100.00;58178.75;5071027;28;20075;-58
2022/06/21 02:13:42;;;;;;;10.45;7.55;;;;;;;-142.64;100.00;58178.75;5070697;28;20464;-57
2022/06/21 02:16:28;;;;;;;16.25;8.95;;;;;;;-142.64;100.00;58178.75;5071869;28;20114;-59
2022/06/21 02:18:56;;;;;;;16.45;8.65;;;;;;;-142.64;100.00;58178.75;5070266;28;20044;-59
2022/06/21 02:21:29;;;;;;;15.55;7.80;;;;;;;-142.64;100.00;58178.75;5070609;28;20028;-61
2022/06/21 02:23:57;;;;;;;15.98;8.93;;;;;;;-142.64;100.00;58178.75;5070480;28;20028;-58
2022/06/21 02:26:24;;;;;;;17.67;9.57;;;;;;;-142.64;100.00;58178.75;5070699;28;20021;-59
2022/06/21 02:28:50;;;;;;;14.00;8.82;;;;;;;-142.64;100.00;58178.75;5071949;28;20029;-59
2022/06/21 02:31:15;;;;;;;17.45;8.35;;;;;;;-142.64;100.00;58178.75;5070850;28;20424;-58
2022/06/21 02:33:42;;;;;;;16.20;8.55;;;;;;;-142.64;100.00;58178.75;5073434;28;20040;-56
2022/06/21 02:36:12;;;;;;;12.93;8.65;;;;;;;-142.64;100.00;58178.75;5075806;28;20048;-59
2022/06/21 02:38:40;;;;;;;15.90;9.27;;;;;;;-142.64;100.00;58178.75;5074338;28;20165;-57
2022/06/21 02:41:06;;;;;;;20.08;9.65;;;;;;;-142.64;100.00;58178.75;5075565;28;20037;-59
2022/06/21 02:43:43;;;;;;;12.85;9.90;;;;;;;-142.64;100.00;58178.75;5075483;28;20044;-57
2022/06/21 02:46:15;;;;;;;15.98;10.27;;;;;;;-142.64;100.00;58178.75;5075110;28;20047;-58
2022/06/21 02:48:58;;;;;;;15.95;10.95;;;;;;;-142.64;100.00;58178.75;5074225;28;20109;-57
2022/06/21 02:51:26;;;;;;;13.15;10.50;;;;;;;-142.64;100.00;58178.75;5074136;28;20035;-58
2022/06/21 02:54:07;;;;;;;15.57;11.93;;;;;;;-142.64;100.00;58178.75;5074408;28;20028;-57
2022/06/21 02:56:42;;;;;;;24.50;13.00;;;;;;;-142.64;100.00;58178.75;5075273;28;20034;-61
2022/06/21 02:59:09;;;;;;;19.77;13.90;;;;;;;-142.64;100.00;58178.75;5073976;28;20051;-58
2022/06/21 03:01:53;;;;;;;21.08;14.48;;;;;;;-142.64;100.00;58178.75;5074096;28;20043;-57
2022/06/21 03:04:34;;;;;;;18.02;13.63;;;;;;;-142.64;100.00;58178.75;5075172;28;20033;-60
2022/06/21 03:06:59;;;;;;;20.58;13.40;;;;;;;-142.64;100.00;58178.75;5074943;28;20491;-57
2022/06/21 03:09:25;;;;;;;17.60;12.02;;;;;;;-142.64;100.00;58178.75;5073910;28;20032;-57
2022/06/21 03:11:52;;;;;;;18.95;12.93;;;;;;;-142.64;100.00;58178.75;5075111;28;20040;-57
2022/06/21 03:14:22;;;;;;;17.48;12.13;;;;;;;-142.64;100.00;58178.75;5073828;28;20055;-58
2022/06/21 03:16:48;;;;;;;14.73;12.63;;;;;;;-142.64;100.00;58178.75;5073408;28;20066;-59
2022/06/21 03:19:19;;;;;;;17.13;12.40;;;;;;;-142.64;100.00;58178.75;5074665;28;20531;-60
2022/06/21 03:21:44;;;;;;;22.52;12.45;;;;;;;-142.64;100.00;58178.75;5074647;28;20024;-58
2022/06/21 03:24:13;;;;;;;18.40;11.95;;;;;;;-142.64;100.00;58178.75;5073690;28;20054;-56
2022/06/21 03:26:39;;;;;;;19.17;12.63;;;;;;;-142.64;100.00;58178.75;5073512;28;20021;-57
2022/06/21 03:29:05;;;;;;;15.05;11.73;;;;;;;-142.64;100.00;58178.75;5074533;28;20074;-57
2022/06/21 03:31:35;;;;;;;21.27;11.90;;;;;;;-142.64;100.00;58178.75;5073457;28;20044;-60
2022/06/21 03:34:13;;;;;;;16.90;12.38;;;;;;;-142.64;100.00;58178.75;5073242;28;20032;-58
2022/06/21 03:36:39;;;;;;;17.52;11.82;;;;;;;-142.64;100.00;58178.75;5073447;28;20082;-58
2022/06/21 03:39:16;;;;;;;19.00;12.43;;;;;;;-142.64;100.00;58178.75;5073191;28;20033;-59
2022/06/21 03:41:44;;;;;;;22.17;12.13;;;;;;;-142.64;100.00;58178.75;5073065;28;20031;-59
2022/06/21 03:44:13;;;;;;;17.05;12.32;;;;;;;-142.64;100.00;58178.75;5072899;28;20476;-59
2022/06/21 03:46:44;;;;;;;14.63;11.23;;;;;;;-142.64;100.00;58178.75;5074180;28;20028;-59
2022/06/21 03:49:20;;;;;;;15.75;11.00;;;;;;;-142.64;100.00;58178.75;5073260;28;20073;-60
2022/06/21 03:51:47;;;;;;;13.35;11.02;;;;;;;-142.64;100.00;58178.75;5074247;28;20036;-60
2022/06/21 03:54:18;;;;;;;17.63;12.43;;;;;;;-142.64;100.00;58178.75;5072925;28;20025;-57
2022/06/21 03:56:50;;;;;;;18.15;11.85;;;;;;;-142.64;100.00;58178.75;5074059;28;20028;-58
2022/06/21 04:00:03;;;;;;;19.30;12.45;;;;;;;-142.64;100.00;58178.75;5072593;28;20029;-58
2022/06/21 04:02:44;;;;;;;16.92;11.98;;;;;;;-142.64;100.00;58178.75;5068981;28;20041;-58
2022/06/21 04:05:26;;;;;;;18.83;12.68;;;;;;;-142.64;100.00;58178.75;5072730;28;20115;-55
2022/06/21 04:07:57;;;;;;;15.45;11.50;;;;;;;-142.64;100.00;58178.75;5072820;28;20525;-59
2022/06/21 04:10:36;;;;;;;20.40;13.18;;;;;;;-142.64;100.00;58178.75;5076378;28;20028;-58
2022/06/21 04:13:02;;;;;;;20.65;12.90;;;;;;;-142.64;100.00;58178.75;5073003;28;20032;-57
2022/06/21 04:15:49;;;;;;;19.42;12.95;;;;;;;-142.64;100.00;58178.75;5072324;28;20029;-60
2022/06/21 04:18:26;;;;;;;17.95;13.65;;;;;;;-142.64;100.00;58178.75;5073397;28;20441;-57
2022/06/21 04:20:54;;;;;;;17.48;13.65;;;;;;;-142.64;100.00;58178.75;5072228;28;20423;-59
2022/06/21 04:23:27;;;;;;;25.52;16.27;;;;;;;-142.64;100.00;58178.75;5073539;28;20040;-57
2022/06/21 04:25:58;;;;;;;23.25;15.15;;;;;;;-142.64;100.00;58178.75;5073213;28;20037;-59
2022/06/21 04:28:27;;;;;;;21.92;16.08;;;;;;;-142.64;100.00;58178.75;5073236;28;20032;-56
2022/06/21 04:31:03;;;;;;;27.85;17.67;;;;;;;-142.64;100.00;58178.75;5072386;28;20161;-60
2022/06/21 04:33:35;;;;;;;27.95;18.80;;;;;;;-142.64;100.00;58178.75;5073419;28;20029;-57
2022/06/21 04:36:02;;;;;;;20.77;15.75;;;;;;;-142.64;100.00;58178.75;5072158;28;20503;-58
2022/06/21 04:38:52;;;;;;;26.85;15.40;;;;;;;-142.64;100.00;58178.75;5073087;28;20044;-59
2022/06/21 04:41:32;;;;;;;25.00;15.27;;;;;;;-142.64;100.00;58178.75;5072123;28;20101;-58
2022/06/21 04:44:23;;;;;;;22.60;14.82;;;;;;;-142.64;100.00;58178.75;5072056;28;20035;-57
2022/06/21 04:46:59;;;;;;;20.35;15.60;;;;;;;-142.64;100.00;58178.75;5069884;28;20055;-59
2022/06/21 04:49:48;;;;;;;21.42;14.18;;;;;;;-142.64;100.00;58178.75;5071570;28;20032;-58
2022/06/21 04:52:21;;;;;;;17.05;13.02;;;;;;;-142.64;100.00;58178.75;5073023;28;20024;-58
2022/06/21 04:54:46;;;;;;;24.02;15.98;;;;;;;-142.64;100.00;58178.75;5072740;28;20021;-56
2022/06/21 04:57:15;;;;;;;21.70;14.75;;;;;;;-142.64;100.00;58178.75;5072509;28;20033;-60
2022/06/21 04:59:48;;;;;;;21.42;14.20;;;;;;;-142.64;100.00;58178.75;5072757;28;20379;-58
2022/06/21 05:02:37;;;;;;;17.17;13.63;;;;;;;-142.64;100.00;58178.75;5072962;28;20403;-57
2022/06/21 05:05:06;;;;;;;24.85;14.32;;;;;;;-142.64;100.00;58178.75;5072748;28;20098;-58
2022/06/21 05:07:34;;;;;;;19.08;12.90;;;;;;;-142.64;100.00;58178.75;5071422;28;20028;-58
2022/06/21 05:10:00;;;;;;;22.00;13.43;;;;;;;-142.64;100.00;58178.75;5071453;28;20032;-59
2022/06/21 05:12:33;;;;;;;17.50;12.52;;;;;;;-142.64;100.00;58178.75;5071470;28;20108;-60
2022/06/21 05:15:09;;;;;;;17.00;10.88;;;;;;;-142.64;100.00;58178.75;5072742;28;20086;-59
2022/06/21 05:17:36;;;;;;;14.95;10.52;;;;;;;-142.64;100.00;58178.75;5071080;28;20041;-59
2022/06/21 05:20:06;;;;;;;21.33;10.30;;;;;;;-142.64;100.00;58178.75;5054560;28;20090;-60
2022/06/21 05:22:40;;;;;;;15.10;10.07;;;;;;;-142.64;100.00;58178.75;5071289;28;20044;-58
2022/06/21 05:25:25;;;;;;;14.23;9.27;;;;;;;-142.64;100.00;58178.75;5071585;28;20078;-59
2022/06/21 05:28:05;;;;;;;12.75;8.20;;;;;;;-142.64;100.00;58178.75;5054442;28;20119;-57
2022/06/21 05:30:50;;;;;;;13.02;8.20;;;;;;;-142.64;100.00;58178.75;5072432;28;20042;-55
2022/06/21 05:33:33;;;;;;;16.17;7.65;;;;;;;-142.64;100.00;58178.75;5057610;28;20060;-59
2022/06/21 05:36:00;;;;;;;12.93;7.70;;;;;;;-142.64;100.00;58178.75;5067337;28;20036;-58
2022/06/21 05:38:30;;;;;;;8.18;6.85;;;;;;;-142.64;100.00;58178.75;5055193;28;20447;-58
2022/06/21 05:41:00;;;;;;;13.07;7.70;;;;;;;-142.64;100.00;58178.75;5064173;28;20032;-58
2022/06/21 05:43:42;;;;;;;13.13;7.97;;;;;;;-142.64;100.00;58178.75;5061318;28;20113;-56
2022/06/21 05:46:16;;;;;;;13.80;8.25;;;;;;;-142.64;100.00;58178.75;5054074;28;20408;-56
2022/06/21 05:48:42;;;;;;;12.23;7.18;;;;;;;-142.64;100.00;58178.75;5041474;28;20167;-57
2022/06/21 05:51:17;;;;;;;9.00;6.90;;;;;;;-142.64;100.00;58178.75;5026943;28;20041;-59
2022/06/21 05:53:49;;;;;;;9.65;6.32;;;;;;;-142.64;100.00;58178.75;5040534;28;20025;-58
2022/06/21 05:56:17;;;;;;;10.40;7.32;;;;;;;-142.64;100.00;58178.75;5066900;28;20033;-58
2022/06/21 05:58:49;;;;;;;13.63;6.60;;;;;;;-142.64;100.00;58178.75;5056496;28;20378;-57
2022/06/21 06:01:22;;;;;;;10.20;6.80;;;;;;;-142.64;100.00;58178.75;5062483;28;20025;-60
2022/06/21 06:03:53;;;;;;;12.35;7.20;;;;;;;-142.64;100.00;58178.75;5063913;28;20047;-58
2022/06/21 06:06:20;;;;;;;12.95;6.55;;;;;;;-142.64;100.00;58178.75;5053586;28;20504;-64
2022/06/21 06:08:53;;;;;;;12.57;7.38;;;;;;;-142.64;100.00;58178.75;5067098;28;20053;-64
2022/06/21 06:11:23;;;;;;;12.75;6.72;;;;;;;-142.64;100.00;58178.75;5064215;28;20174;-64
2022/06/21 06:13:51;;;;;;;10.65;6.57;;;;;;;-142.64;100.00;58178.75;5060638;28;20029;-63
2022/06/21 06:16:37;;;;;;;8.88;6.15;;;;;;;-142.64;100.00;58178.75;5070782;28;20045;-65
2022/06/21 06:19:12;;;;;;;11.48;5.32;;;;;;;-142.64;100.00;58178.75;5063036;28;20060;-64
2022/06/21 06:21:43;;;;;;;11.40;5.65;;;;;;;-142.64;100.00;58178.75;5061922;28;20435;-63
2022/06/21 06:24:30;;;;;;;8.90;6.25;;;;;;;-142.64;100.00;58178.75;5071871;28;20028;-63
2022/06/21 06:26:58;;;;;;;11.18;6.20;;;;;;;-142.64;100.00;58178.75;5060207;28;20462;-63
2022/06/21 06:29:41;;;;;;;11.48;6.07;;;;;;;-142.64;100.00;58178.75;5047142;28;20318;-61
2022/06/21 06:32:29;;;;;;;11.55;6.50;;;;;;;-142.64;100.00;58178.75;5070388;28;20462;-62
2022/06/21 06:34:55;;;;;;;12.82;5.50;;;;;;;-142.64;100.00;58178.75;5046705;28;20093;-62
2022/06/21 06:37:37;;;;;;;9.60;4.70;;;;;;;-142.64;100.00;58178.75;5065073;28;20029;-63
2022/06/21 06:40:05;;;;;;;9.45;4.05;;;;;;;-142.64;100.00;58178.75;5071122;28;20532;-64
2022/06/21 06:42:36;;;;;;;8.00;3.33;;;;;;;-142.64;100.00;58178.75;5054035;28;20478;-63
2022/06/21 06:45:14;;;;;;;7.00;3.92;;;;;;;-142.64;100.00;58178.75;5055304;28;20064;-63
2022/06/21 06:47:47;;;;;;;10.20;4.03;;;;;;;-142.64;100.00;58178.75;5053346;28;20613;-64
2022/06/21 06:50:40;;;;;;;10.00;3.53;;;;;;;-142.64;100.00;58178.75;5053762;28;20043;-61
2022/06/21 06:53:26;;;;;;;9.75;3.80;;;;;;;-142.64;100.00;58178.75;5054238;28;20033;-63
2022/06/21 06:55:55;;;;;;;7.88;3.35;;;;;;;-142.64;100.00;58178.75;5055073;28;20067;-62
2022/06/21 06:58:24;;;;;;;9.75;3.35;;;;;;;-142.64;100.00;58178.75;5053388;28;20086;-62
2022/06/21 07:00:56;;;;;;;10.60;3.95;;;;;;;-142.64;100.00;58178.75;5053387;28;20036;-61
2022/06/21 07:03:24;;;;;;;6.32;3.17;;;;;;;-142.64;100.00;58178.75;5053487;28;20052;-61
2022/06/21 07:06:02;;;;;;;8.68;3.25;;;;;;;-142.64;100.00;58178.75;5054714;28;20487;-60
2022/06/21 07:08:50;;;;;;;7.38;3.13;;;;;;;-142.64;100.00;58178.75;5053369;28;20119;-60
2022/06/21 07:11:43;;;;;;;11.88;3.10;;;;;;;-142.64;100.00;58178.75;5053720;28;20465;-63
2022/06/21 07:14:15;;;;;;;6.20;2.80;;;;;;;-142.64;100.00;58178.75;5053869;28;20082;-61
2022/06/21 07:16:41;;;;;;;9.85;2.80;;;;;;;-142.64;100.00;58178.75;5052776;28;20146;-61
2022/06/21 07:19:09;;;;;;;6.57;2.40;;;;;;;-142.64;100.00;58178.75;5051867;28;20036;-62
2022/06/21 07:21:34;;;;;;;6.57;2.58;;;;;;;-142.64;100.00;58178.75;5052662;28;20061;-62
2022/06/21 07:24:00;;;;;;;6.07;2.30;;;;;;;-142.64;100.00;58178.75;5052404;28;20119;-62
2022/06/21 07:26:33;;;;;;;6.53;2.97;;;;;;;-142.64;100.00;58178.75;5053773;28;20076;-63
2022/06/21 07:29:17;;;;;;;5.05;2.38;;;;;;;-142.64;100.00;58178.75;5052504;28;20029;-62
2022/06/21 07:31:46;;;;;;;5.05;2.63;;;;;;;-142.64;100.00;58178.75;5052487;28;20033;-62
2022/06/21 07:34:32;;;;;;;6.05;2.60;;;;;;;-142.64;100.00;58178.75;5053588;28;20033;-63
2022/06/21 07:37:02;;;;;;;7.65;2.33;;;;;;;-142.64;100.00;58178.75;5053785;28;20029;-62
2022/06/21 07:39:29;;;;;;;7.40;2.30;;;;;;;-142.64;100.00;58178.75;5052200;28;20033;-61
2022/06/21 07:42:03;;;;;;;5.32;3.15;;;;;;;-142.64;100.00;58178.75;5052184;28;20082;-61
2022/06/21 07:44:38;;;;;;;6.75;2.42;;;;;;;-142.64;100.00;58178.75;5053612;28;20052;-62
2022/06/21 07:47:07;;;;;;;5.88;2.67;;;;;;;-142.64;100.00;58178.75;5052270;28;20435;-61
2022/06/21 07:49:38;;;;;;;5.07;2.10;;;;;;;-142.64;100.00;58178.75;5052042;28;20040;-61
2022/06/21 07:52:13;;;;;;;5.15;1.92;;;;;;;-142.64;100.00;58178.75;5053478;28;20036;-60
2022/06/21 07:54:44;;;;;;;9.05;2.38;;;;;;;-142.64;100.00;58178.75;5053036;28;20102;-61
2022/06/21 07:57:13;;;;;;;5.15;1.95;;;;;;;-142.64;100.00;58178.75;5052056;28;20072;-61
2022/06/21 07:59:43;;;;;;;3.92;2.10;;;;;;;-142.64;100.00;58178.75;5053235;28;20037;-61
2022/06/21 08:08:17;;;;;;;5.53;2.17;;;;;;;-142.64;100.00;58178.75;5052849;28;20511;-61
2022/06/21 08:10:52;;;;;;;4.40;2.10;;;;;;;-142.64;100.00;58178.75;5052947;28;20040;-61
2022/06/21 08:13:17;;;;;;;6.22;2.22;;;;;;;-142.64;100.00;58178.75;5052684;28;20072;-61
2022/06/21 08:15:50;;;;;;;5.57;2.05;;;;;;;-142.64;100.00;58178.75;5053027;28;20068;-61
2022/06/21 08:18:25;;;;;;;3.35;1.75;;;;;;;-142.64;100.00;58178.75;5052604;28;20033;-62
2022/06/21 08:21:00;;;;;;;4.05;2.25;;;;;;;-142.64;100.00;58178.75;5051443;28;20040;-62
2022/06/21 08:23:40;;;;;;;3.05;2.05;;;;;;;-142.64;100.00;58178.75;5052561;28;20115;-60
2022/06/21 08:26:12;;;;;;;3.63;2.00;;;;;;;-142.64;100.00;58178.75;5051659;28;20040;-60
2022/06/21 08:28:41;;;;;;;7.60;2.20;;;;;;;-142.64;100.00;58178.75;5051487;28;20078;-61
2022/06/21 08:31:21;;;;;;;4.45;2.35;;;;;;;-142.64;100.00;58178.75;5050576;28;20032;-62
2022/06/21 08:33:47;;;;;;;3.05;2.10;;;;;;;-142.64;100.00;58178.75;5051357;28;20079;-61
2022/06/21 08:36:21;;;;;;;6.15;2.50;;;;;;;-142.64;100.00;58178.75;5052489;28;20040;-58
2022/06/21 08:38:49;;;;;;;4.57;2.08;;;;;;;-142.64;100.00;58178.75;5034218;28;20047;-58
2022/06/21 08:44:42;;;;;;;3.88;2.40;;;;;;;-142.64;100.00;58178.75;5052075;28;20044;-58
2022/06/21 08:47:32;;;;;;;4.30;1.85;;;;;;;-142.64;100.00;58178.75;5052411;28;20048;-59
2022/06/21 08:50:36;;;;;;;6.85;2.30;;;;;;;-142.64;100.00;58178.75;5052226;28;20036;-59
2022/06/21 08:53:40;;;;;;;6.57;2.13;;;;;;;-142.64;100.00;58178.75;5050767;28;20052;-60
2022/06/21 08:56:18;;;;;;;7.32;1.98;;;;;;;-142.64;100.00;58178.75;5047768;28;20033;-59
2022/06/21 08:59:20;;;;;;;5.70;1.75;;;;;;;-142.64;100.00;58178.75;5060854;28;20501;-57
2022/06/21 09:02:19;;;;;;;8.43;2.28;;;;;;;-142.64;100.00;58178.75;5071847;28;20033;-59
2022/06/21 09:05:06;;;;;;;3.05;1.92;;;;;;;-142.64;100.00;58178.75;5071657;28;20032;-59
2022/06/21 09:07:47;;;;;;;5.10;2.28;;;;;;;-142.64;100.00;58178.75;5071596;28;20028;-59
2022/06/21 09:10:34;;;;;;;6.75;2.60;;;;;;;-142.64;100.00;58178.75;5071691;28;20279;-59
2022/06/21 09:13:11;;;;;;;3.75;2.25;;;;;;;-142.64;100.00;58178.75;5071839;28;20070;-60
2022/06/21 09:15:49;;;;;;;3.15;2.28;;;;;;;-142.64;100.00;58178.75;5071378;28;20056;-59
2022/06/21 09:18:49;;;;;;;6.80;2.33;;;;;;;-142.64;100.00;58178.75;5071426;28;20484;-58
2022/06/21 09:21:27;;;;;;;6.72;2.28;;;;;;;-142.64;100.00;58178.75;5049037;28;20546;-60
2022/06/21 09:24:23;;;;;;;5.30;2.13;;;;;;;-142.64;100.00;58178.75;5068220;28;20063;-60
2022/06/21 09:26:56;;;;;;;6.80;2.70;;;;;;;-142.64;100.00;58178.75;5071612;28;20029;-59
2022/06/21 09:29:29;;;;;;;6.30;2.00;;;;;;;-142.64;100.00;58178.75;5069907;28;20037;-59
2022/06/21 09:32:03;;;;;;;5.40;1.95;;;;;;;-142.64;100.00;58178.75;5070204;28;20035;-60
2022/06/21 09:34:51;;;;;;;4.57;2.35;;;;;;;-142.64;100.00;58178.75;5070173;28;20033;-60
2022/06/21 09:37:29;;;;;;;5.88;2.28;;;;;;;-142.64;100.00;58178.75;5071614;28;20035;-59
2022/06/21 09:40:09;;;;;;;5.60;2.22;;;;;;;-142.64;100.00;58178.75;5071401;28;20379;-59
2022/06/21 09:42:41;;;;;;;5.93;2.40;;;;;;;-142.64;100.00;58178.75;5069997;28;20036;-59
2022/06/21 09:45:27;;;;;;;5.05;1.75;;;;;;;-142.64;100.00;58178.75;5070289;28;20033;-60
2022/06/21 09:48:02;;;;;;;3.97;1.85;;;;;;;-142.64;100.00;58178.75;5071491;28;20020;-60
2022/06/21 09:50:44;;;;;;;3.03;1.90;;;;;;;-142.64;100.00;58178.75;5071371;28;20104;-60
2022/06/21 09:53:45;;;;;;;2.20;1.80;;;;;;;-142.64;100.00;58178.75;5070255;28;20433;-58
2022/06/21 09:56:26;;;;;;;2.83;1.92;;;;;;;-142.64;100.00;58178.75;5071445;28;20032;-60
2022/06/21 09:59:07;;;;;;;3.33;1.67;;;;;;;-142.64;100.00;58178.75;5069973;28;20025;-61
2022/06/21 10:01:58;;;;;;;7.05;2.75;;;;;;;-142.64;100.00;58178.75;5071520;28;20424;-57
2022/06/21 10:04:32;;;;;;;6.47;1.80;;;;;;;-142.64;100.00;58178.75;5071916;28;20039;-59
2022/06/21 10:07:28;;;;;;;4.13;2.05;;;;;;;-142.64;100.00;58178.75;5070643;28;20036;-57
2022/06/21 10:10:19;;;;;;;6.80;2.53;;;;;;;-142.64;100.00;58178.75;5070831;28;20064;-59
2022/06/21 10:13:02;;;;;;;4.90;2.10;;;;;;;-142.64;100.00;58178.75;5071302;28;20036;-58
2022/06/21 10:15:39;;;;;;;5.32;2.38;;;;;;;-142.64;100.00;58178.75;5070103;28;20440;-59
2022/06/21 10:18:32;;;;;;;3.35;2.10;;;;;;;-142.64;100.00;58178.75;5069952;28;20403;-59
2022/06/21 10:21:03;;;;;;;5.03;2.33;;;;;;;-142.64;100.00;58178.75;5071209;28;20071;-59
2022/06/21 10:23:52;;;;;;;8.50;2.55;;;;;;;-142.64;100.00;58178.75;5071102;28;20028;-60
2022/06/21 10:26:36;;;;;;;3.50;2.00;;;;;;;-142.64;100.00;58178.75;5071258;28;20063;-59
2022/06/21 10:29:40;;;;;;;14.68;3.28;;;;;;;-142.64;100.00;58178.75;5071432;28;20562;-60
2022/06/21 10:32:08;;;;;;;2.42;1.45;;;;;;;-142.64;100.00;58178.75;5070105;28;20121;-59
2022/06/21 10:34:53;;;;;;;2.45;1.40;;;;;;;-142.64;100.00;58178.75;5071711;28;20051;-59
2022/06/21 10:37:26;;;;;;;2.40;1.30;;;;;;;-142.64;100.00;58178.75;5072054;28;20036;-58
2022/06/21 10:40:27;;;;;;;3.88;1.85;;;;;;;-142.64;100.00;58178.75;5070680;28;20502;-59
2022/06/21 10:43:07;;;;;;;4.00;2.17;;;;;;;-142.64;100.00;58178.75;5068489;28;20430;-59
2022/06/21 10:45:51;;;;;;;5.30;2.22;;;;;;;-142.64;100.00;58178.75;5071354;28;20036;-58
2022/06/21 10:48:30;;;;;;;4.18;1.63;;;;;;;-142.64;100.00;58178.75;5071778;28;20032;-59
2022/06/21 10:51:21;;;;;;;4.28;2.05;;;;;;;-142.64;100.00;58178.75;5070187;28;20399;-61
2022/06/21 10:54:05;;;;;;;4.18;2.22;;;;;;;-142.64;100.00;58178.75;5070216;28;20028;-59
2022/06/21 11:02:54;;;;;;;4.18;2.15;;;;;;;-142.64;100.00;58178.75;5075035;28;20047;-59
2022/06/21 11:05:49;;;;;;;4.18;1.95;;;;;;;-142.64;100.00;58178.75;5074595;28;20471;-59
2022/06/21 11:08:49;;;;;;;3.03;1.52;;;;;;;-142.64;100.00;58178.75;5074542;28;20040;-59
2022/06/21 11:11:23;;;;;;;3.75;1.92;;;;;;;-142.64;100.00;58178.75;5074292;28;20033;-58
2022/06/21 11:14:06;;;;;;;3.83;2.13;;;;;;;-142.64;100.00;58178.75;5074614;28;20020;-60
2022/06/21 11:16:52;;;;;;;3.67;1.80;;;;;;;-142.64;100.00;58178.75;5072673;28;20056;-60
2022/06/21 11:19:48;;;;;;;4.72;2.22;;;;;;;-142.64;100.00;58178.75;5072514;28;20032;-58
2022/06/21 11:22:50;;;;;;;4.43;2.22;;;;;;;-142.64;100.00;58178.75;5074200;28;20115;-57
2022/06/21 11:25:48;;;;;;;4.78;3.10;;;;;;;-142.64;100.00;58178.75;5074188;28;20028;-55
2022/06/21 11:28:31;;;;;;;3.47;2.60;;;;;;;-142.64;100.00;58178.75;5074105;28;20112;-58
2022/06/21 11:31:18;;;;;;;6.00;2.35;;;;;;;-142.64;100.00;58178.75;5074150;28;20086;-59
2022/06/21 11:33:51;;;;;;;5.60;2.42;;;;;;;-142.64;100.00;58178.75;5072950;28;20032;-59
2022/06/21 11:36:27;;;;;;;3.35;2.70;;;;;;;-142.64;100.00;58178.75;5072962;28;20044;-59
2022/06/21 11:39:17;;;;;;;3.80;2.75;;;;;;;-142.64;100.00;58178.75;5074037;28;20032;-59
2022/06/21 11:42:13;;;;;;;3.25;1.77;;;;;;;-142.64;100.00;58178.75;5073736;28;20033;-59
2022/06/21 11:44:57;;;;;;;4.93;2.78;;;;;;;-142.64;100.00;58178.75;5072621;28;20028;-58
2022/06/21 11:47:43;;;;;;;3.50;2.40;;;;;;;-142.64;100.00;58178.75;5073829;28;20025;-59
2022/06/21 11:50:18;;;;;;;6.20;2.88;;;;;;;-142.64;100.00;58178.75;5073677;28;20021;-59
2022/06/21 11:53:00;;;;;;;7.68;3.38;;;;;;;-142.64;100.00;58178.75;5072761;28;20082;-58
2022/06/21 11:55:43;;;;;;;3.28;2.60;;;;;;;-142.64;100.00;58178.75;5072546;28;20029;-58
2022/06/21 11:58:38;;;;;;;4.50;2.30;;;;;;;-142.64;100.00;58178.75;5072405;28;20066;-58